Easton, Massachusetts
Current Conditions -  °F | °C
As of 8:52 PM on Saturday 22 Nov 2014 (Local Time) from KTAN Reporting Station
Clear Clear  
Wind Chill: 38°   Ceiling: Unl
Heat Index: 43°   Visibility: 10mi
Dew Point: 26°   Wind: 9mph
Humidity: 51%   Direction: 230°SW
Pressure: 30.12"   Gusts: 16mph
Location:  42.02°N, 71.13°W
Report Text: KTAN 230152Z AUTO 23008G14KT 200V270 10SM CLR 06/M03 A3012 RMK AO2 SLP200 T00611033
Loading
Personal Weather Stations






























Interactive Weather Map New forecast layout! Learn more

10-Day Weather Forecast

Advertisements
Track Severe Weather on mobile